Time;durP1;ratioP1;P1;durP2;ratioP2;P2;SDS_P1;SDS_P2;PMS_P1;PMS_P2;Temp;Humidity;BMP_temperature;BMP_pressure;BME280_temperature;BME280_humidity;BME280_pressure;Samples;Min_cycle;Max_cycle;Signal;HPM_P1;HPM_P2
2023/06/24 00:02:09;;;;;;;;;;;19.10;90.40;;;;;;5051510;28;19904;-84
2023/06/24 00:04:35;;;;;;;;;;;19.00;90.50;;;;;;5049534;28;19979;-84
2023/06/24 00:07:00;;;;;;;;;;;19.00;90.60;;;;;;5041490;28;19909;-90
2023/06/24 00:09:27;;;;;;;;;;;18.90;90.90;;;;;;5046670;28;19909;-87
2023/06/24 00:11:54;;;;;;;;;;;18.80;91.10;;;;;;5040466;28;19931;-88
2023/06/24 00:14:21;;;;;;;;;;;18.70;91.50;;;;;;5046716;28;19912;-85
2023/06/24 00:16:48;;;;;;;;;;;18.60;92.10;;;;;;5039945;28;19916;-85
2023/06/24 00:19:14;;;;;;;;;;;18.50;92.50;;;;;;5043242;28;20322;-86
2023/06/24 00:21:40;;;;;;;;;;;18.40;92.90;;;;;;5039321;28;19962;-90
2023/06/24 00:24:05;;;;;;;;;;;18.40;93.10;;;;;;5041830;28;20646;-88
2023/06/24 00:26:31;;;;;;;;;;;18.40;93.40;;;;;;5046565;28;19915;-86
2023/06/24 00:28:57;;;;;;;;;;;18.40;93.40;;;;;;5047568;28;19909;-82
2023/06/24 00:31:23;;;;;;;;;;;18.30;93.60;;;;;;5046731;28;19909;-85
2023/06/24 00:33:49;;;;;;;;;;;18.40;93.30;;;;;;5047575;28;19916;-83
2023/06/24 00:36:15;;;;;;;;;;;18.30;93.50;;;;;;5041051;28;19998;-87
2023/06/24 00:38:40;;;;;;;;;;;18.20;93.60;;;;;;5043488;28;19948;-84
2023/06/24 00:41:07;;;;;;;;;;;18.20;93.80;;;;;;5046919;28;19909;-88
2023/06/24 00:43:33;;;;;;;;;;;18.20;93.90;;;;;;5054370;28;19920;-88
2023/06/24 00:46:00;;;;;;;;;;;18.10;94.20;;;;;;5048229;28;19974;-83
2023/06/24 00:48:26;;;;;;;;;;;18.10;94.10;;;;;;5039723;28;20019;-85
2023/06/24 00:50:51;;;;;;;;;;;18.10;93.90;;;;;;5027402;28;20123;-83
2023/06/24 00:53:17;;;;;;;;;;;18.20;93.30;;;;;;5035240;28;19924;-87
2023/06/24 00:55:45;;;;;;;;;;;18.20;93.10;;;;;;5025006;28;19916;-85
2023/06/24 00:58:15;;;;;;;;;;;18.10;93.60;;;;;;5033325;28;20721;-89
2023/06/24 01:00:42;;;;;;;;;;;18.00;93.90;;;;;;5014388;28;19913;-84
2023/06/24 01:03:08;;;;;;;;;;;18.00;93.80;;;;;;5033120;28;19909;-85
2023/06/24 01:05:35;;;;;;;;;;;18.00;93.40;;;;;;5014818;28;19992;-85
2023/06/24 01:08:01;;;;;;;;;;;18.00;93.60;;;;;;5029864;28;19913;-89
2023/06/24 01:10:27;;;;;;;;;;;18.00;93.70;;;;;;5030863;28;19916;-82
2023/06/24 01:12:53;;;;;;;;;;;17.90;93.80;;;;;;5013397;28;19963;-85
2023/06/24 01:15:21;;;;;;;;;;;17.80;94.00;;;;;;5023021;28;19916;-82
2023/06/24 01:17:51;;;;;;;;;;;17.70;94.30;;;;;;5022819;28;19913;-85
2023/06/24 01:20:23;;;;;;;;;;;17.70;94.20;;;;;;5014754;28;20373;-82
2023/06/24 01:22:55;;;;;;;;;;;17.80;94.00;;;;;;5019214;28;20020;-84
2023/06/24 01:25:24;;;;;;;;;;;17.80;94.00;;;;;;5035805;28;20359;-80
2023/06/24 01:28:02;;;;;;;;;;;17.90;93.60;;;;;;5034631;28;19959;-81
2023/06/24 01:30:28;;;;;;;;;;;17.90;93.90;;;;;;5034693;28;19948;-81
2023/06/24 01:32:59;;;;;;;;;;;17.60;94.80;;;;;;5035208;28;19991;-81
2023/06/24 01:35:28;;;;;;;;;;;17.70;94.20;;;;;;5036052;28;19913;-81
2023/06/24 01:37:55;;;;;;;;;;;17.50;94.70;;;;;;5035967;28;19967;-81
2023/06/24 01:40:27;;;;;;;;;;;17.60;94.80;;;;;;5036030;28;19905;-80
2023/06/24 01:42:54;;;;;;;;;;;17.60;94.50;;;;;;5035498;28;19928;-81
2023/06/24 01:45:22;;;;;;;;;;;17.40;94.10;;;;;;5027453;28;20311;-84
2023/06/24 01:47:48;;;;;;;;;;;17.70;93.60;;;;;;5028247;28;20471;-82
2023/06/24 01:50:16;;;;;;;;;;;17.70;93.30;;;;;;5042009;28;19967;-82
2023/06/24 01:52:44;;;;;;;;;;;17.60;93.90;;;;;;5044015;28;19912;-88
2023/06/24 01:55:10;;;;;;;;;;;17.50;94.30;;;;;;5031045;28;19909;-85
2023/06/24 01:57:38;;;;;;;;;;;17.50;93.80;;;;;;5045460;28;19905;-83
2023/06/24 02:00:08;;;;;;;;;;;17.40;94.40;;;;;;5035280;28;19995;-83
2023/06/24 02:02:55;;;;;;;;;;;17.40;94.70;;;;;;5045065;28;19986;-83
2023/06/24 02:05:22;;;;;;;;;;;17.40;94.00;;;;;;5054002;28;19918;-83
2023/06/24 02:07:49;;;;;;;;;;;17.50;93.50;;;;;;5051820;28;20382;-83
2023/06/24 02:10:15;;;;;;;;;;;17.40;93.90;;;;;;5033853;28;19904;-83
2023/06/24 02:12:41;;;;;;;;;;;17.20;94.60;;;;;;5041877;28;19927;-85
2023/06/24 02:15:07;;;;;;;;;;;17.30;94.60;;;;;;5046097;28;20256;-88
2023/06/24 02:17:34;;;;;;;;;;;17.30;94.50;;;;;;5040997;28;19909;-84
2023/06/24 02:20:00;;;;;;;;;;;17.30;94.80;;;;;;5039423;28;19912;-84
2023/06/24 02:22:27;;;;;;;;;;;17.00;95.80;;;;;;5053080;28;19905;-83
2023/06/24 02:24:53;;;;;;;;;;;17.10;95.60;;;;;;5034266;28;20359;-83
2023/06/24 02:27:19;;;;;;;;;;;17.00;95.80;;;;;;5052723;28;20302;-83
2023/06/24 02:29:46;;;;;;;;;;;17.10;95.70;;;;;;5052943;28;19905;-83
2023/06/24 02:32:11;;;;;;;;;;;16.90;96.20;;;;;;5052987;28;19915;-83
2023/06/24 02:34:37;;;;;;;;;;;16.90;96.10;;;;;;5047049;28;20659;-83
2023/06/24 02:37:03;;;;;;;;;;;16.80;96.60;;;;;;5015672;28;19909;-84
2023/06/24 02:39:29;;;;;;;;;;;16.90;95.90;;;;;;5033871;28;19970;-82
2023/06/24 02:41:54;;;;;;;;;;;16.90;96.10;;;;;;5035257;28;19915;-84
2023/06/24 02:44:20;;;;;;;;;;;16.80;95.90;;;;;;5035703;28;19927;-83
2023/06/24 02:46:49;;;;;;;;;;;17.00;94.80;;;;;;5054348;28;19905;-83
2023/06/24 02:49:15;;;;;;;;;;;16.90;95.00;;;;;;5061357;28;19979;-83
2023/06/24 02:51:41;;;;;;;;;;;16.80;95.30;;;;;;5033842;28;20810;-82
2023/06/24 02:54:07;;;;;;;;;;;16.90;94.70;;;;;;5041632;28;19943;-84
2023/06/24 02:56:41;;;;;;;;;;;16.90;94.60;;;;;;5063954;28;19908;-83
2023/06/24 02:59:09;;;;;;;;;;;16.80;94.50;;;;;;5044887;28;20450;-82
2023/06/24 03:01:38;;;;;;;;;;;16.80;94.50;;;;;;5042897;28;19945;-83
2023/06/24 03:04:04;;;;;;;;;;;16.80;94.70;;;;;;5046266;28;19908;-82
2023/06/24 03:06:31;;;;;;;;;;;16.70;94.70;;;;;;5048534;28;19912;-86
2023/06/24 03:08:57;;;;;;;;;;;16.80;94.40;;;;;;5048840;28;20404;-82
2023/06/24 03:11:23;;;;;;;;;;;16.70;94.40;;;;;;5049838;28;19935;-86
2023/06/24 03:13:49;;;;;;;;;;;16.70;94.30;;;;;;5052612;28;20391;-84
2023/06/24 03:16:15;;;;;;;;;;;16.70;94.20;;;;;;5035299;28;19917;-82
2023/06/24 03:18:41;;;;;;;;;;;16.70;94.20;;;;;;5052726;28;19908;-86
2023/06/24 03:21:08;;;;;;;;;;;16.70;94.20;;;;;;5051335;28;19919;-84
2023/06/24 03:23:33;;;;;;;;;;;16.70;94.20;;;;;;5047975;28;19913;-83
2023/06/24 03:25:59;;;;;;;;;;;16.70;94.10;;;;;;5047468;28;19909;-82
2023/06/24 03:28:24;;;;;;;;;;;16.50;94.60;;;;;;5040648;28;19916;-83
2023/06/24 03:30:50;;;;;;;;;;;16.50;95.00;;;;;;5050083;28;19909;-86
2023/06/24 03:33:16;;;;;;;;;;;16.40;95.20;;;;;;5041977;28;19962;-85
2023/06/24 03:35:42;;;;;;;;;;;16.40;95.40;;;;;;5058621;28;19919;-84
2023/06/24 03:38:08;;;;;;;;;;;16.40;94.70;;;;;;5063916;28;19904;-84
2023/06/24 03:40:34;;;;;;;;;;;16.30;95.00;;;;;;5061685;28;20279;-84
2023/06/24 03:42:59;;;;;;;;;;;16.30;94.50;;;;;;5030970;28;19905;-85
2023/06/24 03:45:25;;;;;;;;;;;16.30;94.70;;;;;;5054450;28;19909;-86
2023/06/24 03:47:51;;;;;;;;;;;16.30;94.90;;;;;;5040294;28;19908;-87
2023/06/24 03:50:16;;;;;;;;;;;16.30;94.40;;;;;;5025585;28;20356;-84
2023/06/24 03:52:44;;;;;;;;;;;16.30;94.20;;;;;;5016095;28;19920;-85
2023/06/24 03:55:09;;;;;;;;;;;16.40;93.90;;;;;;5028960;28;20396;-83
2023/06/24 03:57:36;;;;;;;;;;;16.30;94.20;;;;;;5011609;28;19905;-87
2023/06/24 04:00:07;;;;;;;;;;;16.30;94.00;;;;;;5012731;28;20272;-84
2023/06/24 04:02:33;;;;;;;;;;;16.30;94.00;;;;;;5031376;28;19905;-85
2023/06/24 04:04:58;;;;;;;;;;;16.40;93.60;;;;;;5030586;28;19913;-82
2023/06/24 04:07:27;;;;;;;;;;;16.30;94.10;;;;;;5020891;28;19948;-84
2023/06/24 04:09:56;;;;;;;;;;;16.20;94.20;;;;;;5025959;28;19920;-85
2023/06/24 04:12:21;;;;;;;;;;;16.20;94.30;;;;;;5009246;28;19920;-84
2023/06/24 04:14:47;;;;;;;;;;;16.30;93.70;;;;;;5022659;28;19916;-87
2023/06/24 04:17:13;;;;;;;;;;;16.40;92.90;;;;;;5031485;28;20306;-87
2023/06/24 04:19:39;;;;;;;;;;;16.40;92.80;;;;;;5029400;28;19999;-82
2023/06/24 04:22:05;;;;;;;;;;;16.50;92.40;;;;;;5029101;28;19909;-83
2023/06/24 04:24:31;;;;;;;;;;;16.70;91.80;;;;;;5020761;28;20548;-83
2023/06/24 04:26:58;;;;;;;;;;;17.20;90.80;;;;;;5024112;28;19919;-84
2023/06/24 04:29:23;;;;;;;;;;;17.30;90.40;;;;;;5022884;28;19916;-84
2023/06/24 04:31:49;;;;;;;;;;;17.50;90.20;;;;;;5008930;28;19913;-82
2023/06/24 04:34:14;;;;;;;;;;;17.60;89.40;;;;;;5025765;28;20035;-82
2023/06/24 04:36:40;;;;;;;;;;;17.80;88.30;;;;;;5026783;28;19920;-82
2023/06/24 04:39:05;;;;;;;;;;;17.90;87.80;;;;;;5026570;28;19967;-82
2023/06/24 04:41:32;;;;;;;;;;;18.20;86.20;;;;;;5026775;28;20443;-82
2023/06/24 04:43:57;;;;;;;;;;;18.40;86.30;;;;;;5026279;28;20360;-83
2023/06/24 04:46:23;;;;;;;;;;;18.40;85.90;;;;;;5026461;28;19927;-84
2023/06/24 04:48:49;;;;;;;;;;;18.70;85.00;;;;;;5022775;28;19979;-83
2023/06/24 04:51:14;;;;;;;;;;;18.90;84.10;;;;;;5017309;28;20663;-81
2023/06/24 04:53:40;;;;;;;;;;;19.10;83.70;;;;;;5029197;28;19916;-84
2023/06/24 04:56:06;;;;;;;;;;;19.30;82.30;;;;;;5025863;28;19917;-83
2023/06/24 04:58:31;;;;;;;;;;;19.20;81.40;;;;;;5025402;28;19920;-82
2023/06/24 05:00:57;;;;;;;;;;;19.50;79.50;;;;;;5025378;28;20026;-82
2023/06/24 05:03:22;;;;;;;;;;;19.50;80.30;;;;;;5025116;28;19920;-82
2023/06/24 05:05:48;;;;;;;;;;;19.80;79.30;;;;;;5024991;28;19923;-82
2023/06/24 05:08:13;;;;;;;;;;;20.10;78.90;;;;;;5025818;28;20004;-83
2023/06/24 05:10:39;;;;;;;;;;;20.20;76.50;;;;;;5025424;28;19955;-82
2023/06/24 05:13:05;;;;;;;;;;;20.30;76.70;;;;;;5024960;28;20015;-83
2023/06/24 05:15:30;;;;;;;;;;;20.70;75.50;;;;;;5024553;28;19952;-81
2023/06/24 05:17:56;;;;;;;;;;;21.00;73.90;;;;;;5024563;28;20002;-82
2023/06/24 05:20:21;;;;;;;;;;;21.20;71.50;;;;;;5024936;28;20666;-82
2023/06/24 05:22:47;;;;;;;;;;;21.40;72.90;;;;;;5025069;28;19913;-82
2023/06/24 05:25:13;;;;;;;;;;;21.50;70.30;;;;;;5024338;28;19913;-82
2023/06/24 05:27:39;;;;;;;;;;;21.70;69.70;;;;;;5008195;28;19913;-82
2023/06/24 05:30:04;;;;;;;;;;;22.20;68.30;;;;;;5025303;28;19915;-81
2023/06/24 05:32:30;;;;;;;;;;;23.00;66.80;;;;;;5007658;28;20383;-83
2023/06/24 05:34:56;;;;;;;;;;;22.80;68.10;;;;;;5025045;28;19913;-80
2023/06/24 05:37:21;;;;;;;;;;;22.70;66.70;;;;;;5025079;28;19909;-78
2023/06/24 05:39:47;;;;;;;;;;;23.10;65.00;;;;;;5006185;28;20761;-78
2023/06/24 05:42:12;;;;;;;;;;;23.50;64.20;;;;;;5024439;28;19920;-78
2023/06/24 05:44:38;;;;;;;;;;;22.90;66.50;;;;;;5024197;28;19970;-78
2023/06/24 05:47:03;;;;;;;;;;;22.60;68.00;;;;;;5011595;28;19909;-77
2023/06/24 05:49:29;;;;;;;;;;;22.70;66.00;;;;;;5024867;28;19951;-77
2023/06/24 05:51:56;;;;;;;;;;;23.30;65.90;;;;;;5024669;28;19974;-76
2023/06/24 05:54:21;;;;;;;;;;;24.60;63.40;;;;;;5024674;28;19917;-77
2023/06/24 05:56:47;;;;;;;;;;;25.50;59.80;;;;;;5021138;28;19913;-77
2023/06/24 05:59:12;;;;;;;;;;;25.70;57.60;;;;;;5001996;28;19909;-77
2023/06/24 06:01:38;;;;;;;;;;;26.40;58.40;;;;;;5025680;28;19913;-77
2023/06/24 06:04:03;;;;;;;;;;;27.20;56.00;;;;;;5025000;28;19916;-77
2023/06/24 06:06:29;;;;;;;;;;;28.00;53.90;;;;;;5025093;28;19913;-77
2023/06/24 06:08:55;;;;;;;;;;;27.60;54.10;;;;;;5023963;28;20439;-78
2023/06/24 06:11:21;;;;;;;;;;;27.70;52.60;;;;;;5024893;28;19921;-78
2023/06/24 06:13:47;;;;;;;;;;;28.50;52.50;;;;;;5021886;28;19920;-77
2023/06/24 06:16:12;;;;;;;;;;;29.30;52.00;;;;;;5024779;28;20737;-77
2023/06/24 06:18:38;;;;;;;;;;;28.70;51.10;;;;;;5023825;28;19913;-78
2023/06/24 06:21:03;;;;;;;;;;;29.00;50.10;;;;;;5024248;28;19960;-77
2023/06/24 06:23:29;;;;;;;;;;;27.50;52.60;;;;;;5011672;28;19995;-78
2023/06/24 06:25:55;;;;;;;;;;;28.20;52.90;;;;;;5022458;28;19913;-78
2023/06/24 06:28:20;;;;;;;;;;;27.90;53.50;;;;;;5024143;28;19921;-78
2023/06/24 06:30:46;;;;;;;;;;;29.20;51.20;;;;;;5024607;28;20399;-78
2023/06/24 06:33:11;;;;;;;;;;;29.60;49.20;;;;;;5024830;28;19913;-78
2023/06/24 06:35:37;;;;;;;;;;;28.90;51.20;;;;;;5023998;28;19917;-78
2023/06/24 06:38:02;;;;;;;;;;;29.10;52.00;;;;;;5024232;28;19919;-79
2023/06/24 06:40:28;;;;;;;;;;;29.60;49.70;;;;;;5023861;28;19917;-79
2023/06/24 06:42:54;;;;;;;;;;;29.00;52.00;;;;;;5024363;28;19952;-79
2023/06/24 06:45:19;;;;;;;;;;;29.80;50.80;;;;;;5005789;28;20261;-78
2023/06/24 06:47:45;;;;;;;;;;;29.20;51.30;;;;;;5024746;28;19913;-78
2023/06/24 06:50:10;;;;;;;;;;;29.80;49.50;;;;;;5044281;28;19913;-78
2023/06/24 06:52:36;;;;;;;;;;;29.70;50.40;;;;;;5026757;28;19920;-79
2023/06/24 06:55:02;;;;;;;;;;;31.20;50.70;;;;;;5042338;28;19923;-79
2023/06/24 06:57:27;;;;;;;;;;;31.40;48.70;;;;;;5038048;28;20368;-79
2023/06/24 06:59:53;;;;;;;;;;;30.90;48.60;;;;;;5041369;28;19913;-79
2023/06/24 07:02:18;;;;;;;;;;;30.90;48.80;;;;;;5024776;28;19962;-79
2023/06/24 07:04:44;;;;;;;;;;;31.00;49.50;;;;;;5042655;28;19964;-81
2023/06/24 07:07:10;;;;;;;;;;;31.90;44.50;;;;;;5037212;28;19920;-82
2023/06/24 07:09:35;;;;;;;;;;;32.30;47.00;;;;;;5042369;28;19970;-79
2023/06/24 07:12:01;;;;;;;;;;;32.60;45.00;;;;;;5042379;28;19908;-79
2023/06/24 07:14:27;;;;;;;;;;;31.70;46.80;;;;;;5044541;28;19928;-80
2023/06/24 07:16:52;;;;;;;;;;;31.20;45.00;;;;;;5043193;28;19996;-79
2023/06/24 07:19:18;;;;;;;;;;;32.00;44.10;;;;;;5035730;28;20020;-80
2023/06/24 07:21:44;;;;;;;;;;;33.30;45.10;;;;;;5042094;28;20321;-78
2023/06/24 07:24:09;;;;;;;;;;;31.70;44.30;;;;;;5036332;28;19919;-79
2023/06/24 07:26:35;;;;;;;;;;;32.10;46.70;;;;;;5041469;28;19931;-80
2023/06/24 07:29:00;;;;;;;;;;;32.40;45.70;;;;;;5042005;28;19915;-79
2023/06/24 07:31:26;;;;;;;;;;;32.40;44.40;;;;;;5043127;28;19913;-80
2023/06/24 07:33:51;;;;;;;;;;;32.70;44.80;;;;;;5042247;28;19993;-79
2023/06/24 07:36:17;;;;;;;;;;;31.80;46.80;;;;;;5042753;28;20370;-80
2023/06/24 07:38:42;;;;;;;;;;;32.60;44.90;;;;;;5042483;28;20009;-80
2023/06/24 07:41:08;;;;;;;;;;;32.40;43.80;;;;;;5042156;28;19917;-80
2023/06/24 07:43:34;;;;;;;;;;;33.30;44.30;;;;;;5042469;28;19920;-80
2023/06/24 07:45:59;;;;;;;;;;;33.50;43.50;;;;;;5041476;28;20472;-81
2023/06/24 07:48:25;;;;;;;;;;;33.60;42.50;;;;;;5029873;28;19995;-80
2023/06/24 07:50:50;;;;;;;;;;;33.10;41.80;;;;;;5021875;28;20554;-77
2023/06/24 07:53:16;;;;;;;;;;;32.00;44.30;;;;;;5022054;28;20515;-79
2023/06/24 07:55:41;;;;;;;;;;;32.50;43.50;;;;;;5021884;28;20340;-80
2023/06/24 07:58:07;;;;;;;;;;;33.30;42.00;;;;;;5022957;28;20463;-80
2023/06/24 08:00:33;;;;;;;;;;;33.60;43.00;;;;;;5022160;28;19921;-80
2023/06/24 08:02:59;;;;;;;;;;;33.80;42.00;;;;;;5004682;28;19928;-79
2023/06/24 08:05:24;;;;;;;;;;;33.40;42.80;;;;;;5022349;28;19913;-80
2023/06/24 08:07:53;;;;;;;;;;;34.70;43.20;;;;;;5022126;28;19996;-80
2023/06/24 08:10:18;;;;;;;;;;;34.60;41.50;;;;;;5021057;28;19929;-79
2023/06/24 08:12:44;;;;;;;;;;;34.30;41.60;;;;;;5024002;28;19921;-79
2023/06/24 08:15:10;;;;;;;;;;;34.60;40.80;;;;;;5028616;28;20523;-79
2023/06/24 08:17:35;;;;;;;;;;;33.60;41.20;;;;;;5024699;28;20259;-76
2023/06/24 08:20:02;;;;;;;;;;;35.00;41.00;;;;;;5021886;28;20000;-80
2023/06/24 08:22:27;;;;;;;;;;;35.40;39.60;;;;;;5010161;28;20693;-79
2023/06/24 08:24:53;;;;;;;;;;;36.90;39.50;;;;;;5022055;28;19913;-80
2023/06/24 08:27:18;;;;;;;;;;;37.10;38.80;;;;;;5022176;28;19921;-79
2023/06/24 08:29:44;;;;;;;;;;;36.60;38.60;;;;;;5004109;28;19979;-80
2023/06/24 08:32:09;;;;;;;;;;;35.30;39.00;;;;;;5021782;28;19963;-80
2023/06/24 08:34:35;;;;;;;;;;;35.20;39.20;;;;;;5021593;28;19913;-80
2023/06/24 08:37:00;;;;;;;;;;;34.50;39.60;;;;;;5022037;28;20709;-79
2023/06/24 08:39:26;;;;;;;;;;;34.50;39.50;;;;;;5022385;28;19913;-77
2023/06/24 08:41:52;;;;;;;;;;;35.80;38.80;;;;;;5003723;28;19909;-78
2023/06/24 08:44:18;;;;;;;;;;;35.80;36.90;;;;;;5022086;28;19913;-78
2023/06/24 08:46:44;;;;;;;;;;;37.30;38.60;;;;;;5004255;28;19991;-78
2023/06/24 08:49:18;;;;;;;;;;;37.80;38.80;;;;;;5021378;28;20443;-78
2023/06/24 08:51:44;;;;;;;;;;;36.80;38.20;;;;;;5021455;28;20380;-78
2023/06/24 08:54:10;;;;;;;;;;;34.90;38.00;;;;;;5004005;28;19983;-78
2023/06/24 08:56:38;;;;;;;;;;;36.10;36.70;;;;;;5021365;28;19952;-78
2023/06/24 08:59:05;;;;;;;;;;;36.60;38.80;;;;;;5014833;28;20418;-78
2023/06/24 09:01:30;;;;;;;;;;;36.60;36.90;;;;;;5020356;28;20399;-77
2023/06/24 09:03:56;;;;;;;;;;;36.10;38.70;;;;;;5021426;28;19932;-78
2023/06/24 09:06:22;;;;;;;;;;;36.30;38.30;;;;;;5022111;28;19909;-78
2023/06/24 09:08:54;;;;;;;;;;;37.00;37.50;;;;;;5022065;28;19913;-78
2023/06/24 09:11:27;;;;;;;;;;;36.70;38.30;;;;;;5021566;28;20462;-78
2023/06/24 09:13:59;;;;;;;;;;;37.50;36.30;;;;;;5021025;28;19913;-78
2023/06/24 09:16:25;;;;;;;;;;;37.90;38.50;;;;;;5021829;28;20221;-78
2023/06/24 09:18:51;;;;;;;;;;;38.50;38.20;;;;;;5025223;28;19909;-77
2023/06/24 09:21:27;;;;;;;;;;;38.00;35.50;;;;;;5024793;28;19919;-77
2023/06/24 09:23:53;;;;;;;;;;;37.90;36.10;;;;;;5024821;28;20403;-78
2023/06/24 09:26:19;;;;;;;;;;;37.90;35.20;;;;;;5026079;28;19927;-78
2023/06/24 09:28:49;;;;;;;;;;;38.00;35.30;;;;;;5025297;28;19912;-78
2023/06/24 09:31:14;;;;;;;;;;;36.20;36.60;;;;;;5025973;28;20011;-78
2023/06/24 09:33:40;;;;;;;;;;;37.50;35.80;;;;;;5024833;28;19916;-79
2023/06/24 09:36:06;;;;;;;;;;;38.00;37.40;;;;;;5007497;28;19917;-78
2023/06/24 09:38:40;;;;;;;;;;;38.10;36.50;;;;;;5024545;28;19913;-78
2023/06/24 09:41:06;;;;;;;;;;;38.30;35.90;;;;;;5024557;28;19913;-77
2023/06/24 09:43:39;;;;;;;;;;;37.20;35.40;;;;;;5024811;28;19924;-77
2023/06/24 09:46:06;;;;;;;;;;;37.30;35.20;;;;;;5025673;28;19905;-77
2023/06/24 09:48:32;;;;;;;;;;;38.00;35.90;;;;;;5023863;28;19921;-77
2023/06/24 09:51:02;;;;;;;;;;;39.00;34.30;;;;;;5025263;28;19952;-77
2023/06/24 09:53:31;;;;;;;;;;;37.80;34.60;;;;;;5006907;28;20291;-77
2023/06/24 09:55:57;;;;;;;;;;;38.10;34.00;;;;;;5024502;28;20399;-77
2023/06/24 09:58:23;;;;;;;;;;;37.70;35.00;;;;;;5000357;28;19913;-77
2023/06/24 10:00:49;;;;;;;;;;;37.70;34.90;;;;;;5019369;28;19913;-78
2023/06/24 10:03:15;;;;;;;;;;;38.10;33.30;;;;;;5024563;28;20112;-77
2023/06/24 10:05:40;;;;;;;;;;;38.60;34.00;;;;;;5024108;28;20457;-78
2023/06/24 10:08:06;;;;;;;;;;;38.60;35.80;;;;;;5024677;28;19921;-78
2023/06/24 10:10:33;;;;;;;;;;;38.40;34.10;;;;;;5026348;28;19936;-78
2023/06/24 10:12:58;;;;;;;;;;;38.80;33.20;;;;;;5024049;28;20326;-78
2023/06/24 10:15:24;;;;;;;;;;;40.00;33.30;;;;;;5006018;28;19913;-77
2023/06/24 10:17:50;;;;;;;;;;;40.60;33.40;;;;;;5023877;28;19913;-78
2023/06/24 10:20:24;;;;;;;;;;;39.70;34.50;;;;;;5005813;28;20006;-78
2023/06/24 10:22:51;;;;;;;;;;;40.60;34.60;;;;;;5006154;28;20303;-78
2023/06/24 10:25:17;;;;;;;;;;;39.90;32.90;;;;;;5024137;28;19913;-77
2023/06/24 10:27:43;;;;;;;;;;;40.30;33.30;;;;;;5023188;28;19913;-78
2023/06/24 10:30:08;;;;;;;;;;;38.80;34.00;;;;;;5021438;28;19959;-78
2023/06/24 10:32:42;;;;;;;;;;;38.80;32.40;;;;;;5005642;28;19920;-78
2023/06/24 10:35:20;;;;;;;;;;;38.60;33.20;;;;;;5023541;28;19921;-77
2023/06/24 10:37:53;;;;;;;;;;;38.90;34.80;;;;;;5024313;28;20003;-77
2023/06/24 10:40:34;;;;;;;;;;;39.20;32.70;;;;;;5023929;28;19921;-78
2023/06/24 10:43:00;;;;;;;;;;;39.70;32.90;;;;;;5026405;28;19923;-78
2023/06/24 10:45:26;;;;;;;;;;;38.90;34.00;;;;;;5023594;28;19919;-79
2023/06/24 10:47:56;;;;;;;;;;;38.60;31.50;;;;;;5023309;28;19913;-78
2023/06/24 10:50:23;;;;;;;;;;;37.40;34.10;;;;;;5023622;28;19913;-78
2023/06/24 10:52:53;;;;;;;;;;;35.40;36.80;;;;;;5023269;28;19925;-78
2023/06/24 10:55:19;;;;;;;;;;;34.00;34.00;;;;;;5022943;28;19913;-78
2023/06/24 10:57:45;;;;;;;;;;;32.70;37.00;;;;;;5005741;28;19963;-79
2023/06/24 11:00:11;;;;;;;;;;;32.70;42.10;;;;;;5020812;28;19917;-78
2023/06/24 11:02:37;;;;;;;;;;;32.20;37.40;;;;;;5023731;28;19994;-78
2023/06/24 11:05:03;;;;;;;;;;;32.00;41.40;;;;;;5023790;28;19995;-78
2023/06/24 11:07:30;;;;;;;;;;;31.20;39.20;;;;;;5022302;28;19917;-78
2023/06/24 11:09:56;;;;;;;;;;;30.80;41.60;;;;;;5022781;28;19924;-78
2023/06/24 11:12:26;;;;;;;;;;;30.60;38.80;;;;;;5015270;28;19948;-80
2023/06/24 11:14:54;;;;;;;;;;;30.60;38.80;;;;;;5022671;28;19920;-79
2023/06/24 11:17:20;;;;;;;;;;;30.70;42.70;;;;;;5022452;28;19913;-80
2023/06/24 11:19:46;;;;;;;;;;;30.10;39.60;;;;;;5022423;28;19916;-79
2023/06/24 11:22:12;;;;;;;;;;;30.30;39.10;;;;;;5023120;28;19913;-78
2023/06/24 11:24:39;;;;;;;;;;;30.30;41.40;;;;;;5022561;28;20718;-79
2023/06/24 11:27:05;;;;;;;;;;;30.30;42.50;;;;;;5022219;28;19962;-78
2023/06/24 11:29:31;;;;;;;;;;;30.00;42.50;;;;;;5022230;28;20768;-81
2023/06/24 11:31:57;;;;;;;;;;;29.70;40.50;;;;;;5019824;28;19924;-80
2023/06/24 11:34:23;;;;;;;;;;;29.70;40.30;;;;;;5021459;28;19927;-81
2023/06/24 11:36:48;;;;;;;;;;;29.50;40.70;;;;;;5022100;28;19955;-80
2023/06/24 11:39:23;;;;;;;;;;;29.50;40.70;;;;;;5021971;28;19917;-81
2023/06/24 11:41:49;;;;;;;;;;;29.50;41.40;;;;;;5021735;28;19909;-80
2023/06/24 11:44:15;;;;;;;;;;;29.60;43.60;;;;;;5003394;28;19924;-80
2023/06/24 11:46:40;;;;;;;;;;;29.40;42.40;;;;;;5020793;28;20658;-80
2023/06/24 11:49:07;;;;;;;;;;;29.30;42.40;;;;;;5021816;28;20382;-81
2023/06/24 11:51:33;;;;;;;;;;;29.20;39.70;;;;;;5020667;28;19920;-80
2023/06/24 11:54:00;;;;;;;;;;;29.20;42.80;;;;;;5022156;28;19925;-81
2023/06/24 11:56:36;;;;;;;;;;;29.10;44.00;;;;;;5020787;28;19939;-80
2023/06/24 11:59:05;;;;;;;;;;;29.00;43.70;;;;;;5004035;28;19912;-80
2023/06/24 12:01:31;;;;;;;;;;;28.80;43.60;;;;;;5021088;28;20030;-80
2023/06/24 12:03:59;;;;;;;;;;;28.90;41.30;;;;;;5023023;28;19919;-79
2023/06/24 12:06:24;;;;;;;;;;;29.00;40.80;;;;;;5022768;28;21269;-81
2023/06/24 12:08:50;;;;;;;;;;;28.90;40.60;;;;;;5022449;28;19988;-80
2023/06/24 12:11:15;;;;;;;;;;;28.90;44.10;;;;;;5021822;28;19912;-80
2023/06/24 12:13:41;;;;;;;;;;;28.90;44.10;;;;;;5021316;28;19970;-81
2023/06/24 12:16:07;;;;;;;;;;;28.80;47.90;;;;;;5021856;28;19948;-81
2023/06/24 12:18:32;;;;;;;;;;;28.80;42.90;;;;;;5021658;28;20678;-81
2023/06/24 12:20:58;;;;;;;;;;;28.80;42.90;;;;;;5021577;28;19928;-80
2023/06/24 12:23:23;;;;;;;;;;;28.80;41.20;;;;;;5021494;28;19955;-80
2023/06/24 12:25:49;;;;;;;;;;;28.80;42.40;;;;;;5003570;28;19931;-80
2023/06/24 12:28:14;;;;;;;;;;;28.60;41.40;;;;;;5022429;28;19959;-80
2023/06/24 12:30:40;;;;;;;;;;;28.60;40.80;;;;;;5021851;28;19960;-80
2023/06/24 12:33:08;;;;;;;;;;;28.60;43.00;;;;;;5003549;28;19921;-80
2023/06/24 12:35:34;;;;;;;;;;;28.70;41.30;;;;;;5021760;28;19955;-80
2023/06/24 12:37:59;;;;;;;;;;;28.40;39.80;;;;;;5022722;28;19949;-80
2023/06/24 12:40:25;;;;;;;;;;;28.30;39.60;;;;;;5016012;28;20428;-81
2023/06/24 12:42:50;;;;;;;;;;;28.30;39.90;;;;;;5021134;28;19920;-80
2023/06/24 12:45:16;;;;;;;;;;;28.40;43.00;;;;;;5020494;28;19927;-80
2023/06/24 12:47:42;;;;;;;;;;;28.40;42.40;;;;;;5021266;28;20391;-80
2023/06/24 12:50:08;;;;;;;;;;;28.40;42.60;;;;;;5021169;28;19959;-81
2023/06/24 12:52:34;;;;;;;;;;;28.40;42.10;;;;;;5023632;28;20415;-80
2023/06/24 12:54:59;;;;;;;;;;;28.20;40.10;;;;;;5021778;28;19916;-80
2023/06/24 12:57:25;;;;;;;;;;;28.30;42.60;;;;;;5023223;28;19917;-80
2023/06/24 12:59:50;;;;;;;;;;;28.20;42.60;;;;;;5025245;28;20723;-80
2023/06/24 13:02:16;;;;;;;;;;;28.30;42.40;;;;;;5024320;28;19916;-80
2023/06/24 13:04:41;;;;;;;;;;;28.20;41.90;;;;;;5018682;28;19940;-77
2023/06/24 13:07:09;;;;;;;;;;;28.20;42.50;;;;;;5017196;28;19913;-78
2023/06/24 13:09:35;;;;;;;;;;;28.30;41.40;;;;;;5022010;28;19917;-79
2023/06/24 13:12:00;;;;;;;;;;;28.30;45.10;;;;;;5024462;28;20430;-77
2023/06/24 13:14:27;;;;;;;;;;;28.20;41.90;;;;;;5024664;28;20029;-77
2023/06/24 13:16:54;;;;;;;;;;;28.10;40.80;;;;;;5024281;28;19913;-78
2023/06/24 13:19:19;;;;;;;;;;;28.20;40.10;;;;;;5025232;28;19917;-77
2023/06/24 13:21:45;;;;;;;;;;;28.10;42.60;;;;;;5025232;28;19914;-77
2023/06/24 13:24:12;;;;;;;;;;;28.20;44.50;;;;;;5022909;28;20397;-77
2023/06/24 13:26:38;;;;;;;;;;;28.00;41.30;;;;;;5025533;28;19913;-78
2023/06/24 13:29:03;;;;;;;;;;;28.10;46.90;;;;;;5025155;28;19988;-77
2023/06/24 13:31:29;;;;;;;;;;;28.10;42.80;;;;;;5024790;28;19925;-82
2023/06/24 13:33:55;;;;;;;;;;;28.10;41.60;;;;;;5021374;28;19975;-79
2023/06/24 13:36:29;;;;;;;;;;;28.00;42.20;;;;;;5024297;28;19948;-78
2023/06/24 13:38:54;;;;;;;;;;;28.00;43.70;;;;;;5006536;28;20007;-77
2023/06/24 13:41:20;;;;;;;;;;;28.10;43.10;;;;;;5024281;28;20095;-76
2023/06/24 13:43:45;;;;;;;;;;;28.00;42.90;;;;;;5023146;28;19940;-77
2023/06/24 13:46:11;;;;;;;;;;;28.00;43.60;;;;;;5024376;28;20019;-78
2023/06/24 13:48:37;;;;;;;;;;;28.10;44.60;;;;;;5022872;28;20030;-78
2023/06/24 13:51:03;;;;;;;;;;;27.90;43.50;;;;;;5024351;28;19920;-79
2023/06/24 13:53:28;;;;;;;;;;;28.00;44.20;;;;;;5024415;28;20000;-79
2023/06/24 13:55:54;;;;;;;;;;;27.90;44.00;;;;;;5024144;28;19913;-78
2023/06/24 13:58:20;;;;;;;;;;;27.90;43.10;;;;;;5024455;28;19917;-78
2023/06/24 14:00:45;;;;;;;;;;;27.90;43.20;;;;;;5015023;28;19928;-77
2023/06/24 14:03:11;;;;;;;;;;;27.90;43.50;;;;;;5024054;28;19913;-76
2023/06/24 14:05:37;;;;;;;;;;;27.80;44.90;;;;;;5024199;28;19940;-76
2023/06/24 14:08:03;;;;;;;;;;;27.90;45.30;;;;;;5024135;28;20000;-76
2023/06/24 14:10:29;;;;;;;;;;;27.80;44.10;;;;;;5023659;28;20276;-76
2023/06/24 14:12:54;;;;;;;;;;;27.80;44.00;;;;;;5023999;28;19920;-75